Karewood Brave — C6CY8 — position and weather

sailwx.info

Track history (hours):
 
Tides and Currents Weather Stations Pressure Air Temp Water Temp Dewpoint Dewpoint Depression Visibility Wind Speed Wind Dir Waves Ship Positions

Karewood Brave

Last reported at 2018-Jul-15 13:54 UTC. Time now 2018-Jul-21 09:31 UTC.
Position N 39°47' E 025°52'.

Length 127 m; draft 4.7 m.

Type: Cargo ship. MMSI: 311000611.

Date/timePositionNaut miles runAvg speedWind from/ knotsBaromVisibWave heightAir tempDewpointWater temp
2018-Jul-15 13:54N 39°47' E 025°52'4 8.6
2018-Jul-15 13:25N 39°51' E 025°52'  
2018-Jul-12 09:33N 43°43' E 034°09'0 7.8
2018-Jul-12 09:30N 43°43' E 034°09'4 7.8
2018-Jul-12 09:00N 43°45' E 034°14'4 7.8
2018-Jul-12 08:30N 43°47' E 034°18'4 7.9
2018-Jul-12 08:00N 43°49' E 034°23'93 8.7
2018-Jul-11 21:18N 44°41' E 036°11'2 8.1
2018-Jul-11 21:00N 44°43' E 036°13'4 8.0
2018-Jul-11 20:30N 44°46' E 036°18'4 7.9
2018-Jul-11 20:00N 44°48' E 036°22'4 7.8
2018-Jul-11 19:30N 44°51' E 036°25'4 7.9
2018-Jul-11 19:00N 44°54' E 036°28'4 8.0
2018-Jul-11 18:30N 44°58' E 036°29'4 8.1
2018-Jul-11 18:00N 45°02' E 036°29'5 8.0
2018-Jul-11 17:20N 45°08' E 036°29'3 7.9
2018-Jul-11 17:00N 45°10' E 036°28'4 7.7
2018-Jul-11 16:27N 45°15' E 036°28'4 7.1
2018-Jul-11 15:57N 45°18' E 036°29'3 6.9
2018-Jul-11 15:30N 45°19' E 036°33'4 8.1
2018-Jul-11 15:00N 45°21' E 036°38'4 7.7
2018-Jul-11 14:30N 45°24' E 036°41'5 8.1
2018-Jul-11 13:53N 45°29' E 036°43'  
Track history (hours):
 
Tides and Currents Weather Stations Pressure Air Temp Water Temp Dewpoint Dewpoint Depression Visibility Wind Speed Wind Dir Waves Ship Positions

Karewood Brave

Last reported at 2018-Jul-15 13:54 UTC. Time now 2018-Jul-21 09:31 UTC.
Position N 39°47' E 025°52'.

Length 127 m; draft 4.7 m.

Type: Cargo ship. MMSI: 311000611.

Date/timePositionNaut miles runAvg speedWind from/ knotsBaromVisibWave heightAir tempDewpointWater temp
2018-Jul-15 13:54N 39°47' E 025°52'4 8.6
2018-Jul-15 13:25N 39°51' E 025°52'  
2018-Jul-12 09:33N 43°43' E 034°09'0 7.8
2018-Jul-12 09:30N 43°43' E 034°09'4 7.8
2018-Jul-12 09:00N 43°45' E 034°14'4 7.8
2018-Jul-12 08:30N 43°47' E 034°18'4 7.9
2018-Jul-12 08:00N 43°49' E 034°23'93 8.7
2018-Jul-11 21:18N 44°41' E 036°11'2 8.1
2018-Jul-11 21:00N 44°43' E 036°13'4 8.0
2018-Jul-11 20:30N 44°46' E 036°18'4 7.9
2018-Jul-11 20:00N 44°48' E 036°22'4 7.8
2018-Jul-11 19:30N 44°51' E 036°25'4 7.9
2018-Jul-11 19:00N 44°54' E 036°28'4 8.0
2018-Jul-11 18:30N 44°58' E 036°29'4 8.1
2018-Jul-11 18:00N 45°02' E 036°29'5 8.0
2018-Jul-11 17:20N 45°08' E 036°29'3 7.9
2018-Jul-11 17:00N 45°10' E 036°28'4 7.7
2018-Jul-11 16:27N 45°15' E 036°28'4 7.1
2018-Jul-11 15:57N 45°18' E 036°29'3 6.9
2018-Jul-11 15:30N 45°19' E 036°33'4 8.1
2018-Jul-11 15:00N 45°21' E 036°38'4 7.7
2018-Jul-11 14:30N 45°24' E 036°41'5 8.1
2018-Jul-11 13:53N 45°29' E 036°43'  

Dump ship's entire track history